Nearby METAR Reports

 

KMRB - Martinsburg, West Virginia, USA
Distance from station: NNW 9mi, 14km
Updated: 12/06/2019 7:53am
Clear
Clear
 Wind from calm
Wind: Calm
Temperature: 30°F , -1°C
Dew Point: 23°F , -5°C
Humidity: 75%
Barometer: 30.09 inHg , 1019 hPa
Clouds: Clear
Visibility: 10 miles , 16 km
2019/12/06 12:53 KMRB 061253Z 00000KT 10SM CLR M01/M05 A3009 RMK AO2 SLP194 T10061050
KOKV - Winchester Rgnl, Virginia, USA
Distance from station: SW 17mi, 28km
Updated: 12/06/2019 8:35am
Clear
Clear
 Wind from SW
Wind: SW 8 mph , 13 km/h
Temperature: 41°F , 5°C
Wind Chill: 36°F , 2°C
Dew Point: 23°F , -5°C
Humidity: 49%
Barometer: 30.09 inHg , 1019 hPa
Clouds: Clear
Visibility: 10 miles , 16 km
2019/12/06 13:35 KOKV 061335Z AUTO 22007KT 10SM CLR 05/M05 A3009 RMK AO2
 
KJYO - Leesburg/Godfrey, Virginia, USA
Distance from station: SE 23mi, 38km
Updated: 12/06/2019 8:35am
Clear
Clear
 Wind from SSW
Wind: SSW 5 mph , 7 km/h
Temperature: 37°F , 3°C
Wind Chill: 33°F , 1°C
Dew Point: 28°F , -2°C
Humidity: 70%
Barometer: 30.14 inHg , 1020.7 hPa
Clouds: Clear
Visibility: 10 miles , 16 km
2019/12/06 13:35 KJYO 061335Z AUTO 20004KT 10SM CLR 03/M02 A3014 RMK AO2
KFDK - Frederick, Maryland, USA
Distance from station: ENE 30mi, 48km
Updated: 12/06/2019 7:47am
Mostly cloudy
Mostly cloudy
 Wind from calm
Wind: Calm
Temperature: 32°F , 0°C
Dew Point: 28°F , -2°C
Humidity: 87%
Barometer: 30.14 inHg , 1020.7 hPa
Clouds: Mostly cloudy
Visibility: 10 miles , 16 km
Cloud details: Mostly cloudy 20000 ft
2019/12/06 12:47 KFDK 061247Z 00000KT 10SM BKN200 00/M02 A3014
 
KHGR - Hagerstown, Maryland, USA
Distance from station: NNE 30mi, 48km
Updated: 12/06/2019 7:53am
Clear
Clear
 Wind from S
Wind: S 8 mph , 13 km/h
Temperature: 37°F , 3°C
Wind Chill: 31°F , -1°C
Dew Point: 21°F , -6°C
Humidity: 52%
Barometer: 30.09 inHg , 1019 hPa
Clouds: Clear
Visibility: 10 miles , 16 km
2019/12/06 12:53 KHGR 061253Z 18007KT 10SM CLR 03/M06 A3009 RMK AO2 SLP204 T00331056
KIAD - Wash Dc/Dulles, Virginia, USA
Distance from station: SE 34mi, 55km
Updated: 12/06/2019 7:52am
Mostly cloudy
Mostly cloudy
 Wind from S
Wind: S 5 mph , 7 km/h
Temperature: 34°F , 1°C
Wind Chill: 29°F , -2°C
Dew Point: 25°F , -4°C
Humidity: 70%
Barometer: 30.15 inHg , 1021 hPa
Clouds: Mostly cloudy
Visibility: 10 miles , 16 km
Cloud details: Partly cloudy 14000 ft
Mostly cloudy 25000 ft
2019/12/06 12:52 KIAD 061252Z 17004KT 10SM SCT140 BKN250 01/M04 A3015 RMK AO2 SLP211 T00061044
 
KRSP - Nsf Thurmont, Maryland, USA
Distance from station: NE 34mi, 55km
Updated: 05/18/2019 1:54pm
NOT Current

 
2019/05/18 17:54 KRSP 181754Z AUTO VRB04KTLS21/16 A3004 RMK AO2 SLP168 T02110161 10228 20172 $
KGAI - Gaithersburg, Maryland, USA
Distance from station: E 40mi, 64km
Updated: 12/06/2019 7:56am
Clear
Clear
 Wind from S
Wind: S 6 mph , 9 km/h
Temperature: 36°F , 2°C
Wind Chill: 31°F , -1°C
Dew Point: 27°F , -3°C
Humidity: 70%
Barometer: 30.14 inHg , 1020.7 hPa
Clouds: Clear
Visibility: 10 miles , 16 km
2019/12/06 12:56 KGAI 061256Z AUTO 17005KT 10SM CLR 02/M03 A3014 RMK AO2 SLP225 T00221033 FZRANO
 
KRYT - Fountain Dale, Pennsylvania, USA
Distance from station: NE 40mi, 64km
Updated: 11/13/2017 7:53am
NOT Current
Mist, Overcast
Mist, Overcast
 Wind from calm
Wind: Calm
Temperature: 37°F , 3°C
Dew Point: 34°F , 1°C
Humidity: 87%
Barometer: 30.31 inHg , 1026.4 hPa
Summary: Mist
Clouds: Overcast
Visibility: 5 miles , 8 km
Cloud details: Overcast 700 ft
2017/11/13 12:53 KRYT 131253Z AUTO 00000KT 5SM BR OVC007 03/01 A3031 RMK AO2 SLP275 T00280011 TSNO $
KHEF - Manassas Muni, Virginia, USA
Distance from station: SSE 44mi, 72km
Updated: 12/06/2019 7:56am
Clear
Clear
 Wind from calm
Wind: Calm
Temperature: 28°F , -2°C
Dew Point: 27°F , -3°C
Humidity: 93%
Barometer: 30.16 inHg , 1021.3 hPa
Clouds: Clear
Visibility: 10 miles , 16 km
2019/12/06 12:56 KHEF 061256Z 00000KT 10SM CLR M02/M03 A3016 RMK AO2 SLP220 T10221033 FZRANO
 
KHWY - Warrenton, Virginia, USA
Distance from station: SSE 50mi, 80km
Updated: 12/06/2019 8:35am
Clear
Clear
 Wind from calm
Wind: Calm
Temperature: 36°F , 2°C
Dew Point: 27°F , -3°C
Humidity: 70%
Barometer: 30.14 inHg , 1020.7 hPa
Clouds: Clear
Visibility: 10 miles , 16 km
2019/12/06 13:35 KHWY 061335Z AUTO 00000KT 10SM CLR 02/M03 A3014 RMK AO2 T00151029